Time;durP1;ratioP1;P1;durP2;ratioP2;P2;SDS_P1;SDS_P2;PMS_P1;PMS_P2;Temp;Humidity;BMP_temperature;BMP_pressure;BME280_temperature;BME280_humidity;BME280_pressure;Samples;Min_cycle;Max_cycle;Signal;HPM_P1;HPM_P2
2023/05/25 00:00:24;;;;;;;;;;;;;;;;;;5064495;28;19963;-77
2023/05/25 00:02:51;;;;;;;;;;;;;;;;;;5046097;28;19921;-75
2023/05/25 00:05:17;;;;;;;;;;;;;;;;;;5065550;28;19935;-76
2023/05/25 00:07:42;;;;;;;;;;;;;;;;;;5065169;28;20326;-78
2023/05/25 00:10:08;;;;;;;;;;;;;;;;;;5059497;28;20296;-78
2023/05/25 00:12:36;;;;;;;;;;;;;;;;;;5055630;28;19929;-78
2023/05/25 00:15:02;;;;;;;;;;;;;;;;;;5056574;28;19920;-76
2023/05/25 00:17:30;;;;;;;;;;;;;;;;;;5055263;28;19913;-78
2023/05/25 00:19:56;;;;;;;;;;;;;;;;;;5055226;28;19913;-77
2023/05/25 00:22:22;;;;;;;;;;;;;;;;;;5053790;28;19913;-77
2023/05/25 00:24:47;;;;;;;;;;;;;;;;;;5055224;28;19913;-76
2023/05/25 00:27:12;;;;;;;;;;;;;;;;;;5055463;28;20296;-76
2023/05/25 00:29:38;;;;;;;;;;;;;;;;;;5033563;28;19917;-78
2023/05/25 00:32:03;;;;;;;;;;;;;;;;;;5050933;28;19913;-78
2023/05/25 00:34:29;;;;;;;;;;;;;;;;;;5033451;28;19917;-78
2023/05/25 00:36:54;;;;;;;;;;;;;;;;;;5050150;28;20304;-78
2023/05/25 00:39:20;;;;;;;;;;;;;;;;;;5033816;28;19964;-78
2023/05/25 00:41:45;;;;;;;;;;;;;;;;;;5034455;28;19909;-79
2023/05/25 00:44:13;;;;;;;;;;;;;;;;;;5034573;28;19913;-79
2023/05/25 00:46:39;;;;;;;;;;;;;;;;;;5052659;28;19913;-79
2023/05/25 00:49:04;;;;;;;;;;;;;;;;;;5054665;28;20004;-78
2023/05/25 00:51:35;;;;;;;;;;;;;;;;;;5054415;28;20445;-80
2023/05/25 00:54:00;;;;;;;;;;;;;;;;;;5053868;28;19916;-78
2023/05/25 00:56:27;;;;;;;;;;;;;;;;;;5054246;28;20049;-79
2023/05/25 00:58:55;;;;;;;;;;;;;;;;;;5053085;28;20063;-80
2023/05/25 01:01:21;;;;;;;;;;;;;;;;;;5054278;28;19956;-78
2023/05/25 01:03:46;;;;;;;;;;;;;;;;;;5054139;28;19913;-78
2023/05/25 01:06:12;;;;;;;;;;;;;;;;;;5052372;28;19913;-77
2023/05/25 01:08:37;;;;;;;;;;;;;;;;;;5053227;28;19913;-77
2023/05/25 01:11:03;;;;;;;;;;;;;;;;;;5052879;28;20427;-78
2023/05/25 01:13:29;;;;;;;;;;;;;;;;;;5054116;28;20364;-78
2023/05/25 01:15:56;;;;;;;;;;;;;;;;;;5053065;28;19955;-77
2023/05/25 01:18:21;;;;;;;;;;;;;;;;;;5054089;28;20291;-79
2023/05/25 01:20:46;;;;;;;;;;;;;;;;;;5051585;28;19917;-77
2023/05/25 01:23:12;;;;;;;;;;;;;;;;;;5052767;28;19912;-77
2023/05/25 01:25:38;;;;;;;;;;;;;;;;;;5053814;28;20400;-79
2023/05/25 01:28:04;;;;;;;;;;;;;;;;;;5053789;28;20384;-78
2023/05/25 01:30:29;;;;;;;;;;;;;;;;;;5068738;28;19955;-77
2023/05/25 01:32:55;;;;;;;;;;;;;;;;;;5035584;28;19921;-77
2023/05/25 01:35:20;;;;;;;;;;;;;;;;;;5035886;28;20380;-78
2023/05/25 01:37:46;;;;;;;;;;;;;;;;;;5051338;28;19920;-78
2023/05/25 01:40:11;;;;;;;;;;;;;;;;;;5052186;28;20391;-78
2023/05/25 01:42:36;;;;;;;;;;;;;;;;;;5052520;28;19917;-78
2023/05/25 01:45:03;;;;;;;;;;;;;;;;;;5052438;28;19912;-78
2023/05/25 01:47:28;;;;;;;;;;;;;;;;;;5053354;28;20012;-78
2023/05/25 01:49:53;;;;;;;;;;;;;;;;;;5053239;28;20294;-79
2023/05/25 01:52:19;;;;;;;;;;;;;;;;;;5051272;28;19952;-78
2023/05/25 01:54:44;;;;;;;;;;;;;;;;;;5052159;28;20478;-77
2023/05/25 01:57:11;;;;;;;;;;;;;;;;;;5052102;28;20395;-78
2023/05/25 01:59:36;;;;;;;;;;;;;;;;;;5051604;28;20012;-77
2023/05/25 02:02:02;;;;;;;;;;;;;;;;;;5051790;28;19959;-77
2023/05/25 02:04:27;;;;;;;;;;;;;;;;;;5051594;28;19917;-79
2023/05/25 02:06:53;;;;;;;;;;;;;;;;;;5034044;28;20392;-78
2023/05/25 02:09:19;;;;;;;;;;;;;;;;;;5050419;28;19966;-78
2023/05/25 02:11:44;;;;;;;;;;;;;;;;;;5052532;28;19912;-77
2023/05/25 02:14:10;;;;;;;;;;;;;;;;;;5051390;28;20043;-77
2023/05/25 02:16:35;;;;;;;;;;;;;;;;;;5051354;28;20383;-78
2023/05/25 02:19:01;;;;;;;;;;;;;;;;;;5052570;28;20389;-77
2023/05/25 02:21:27;;;;;;;;;;;;;;;;;;5051128;28;19920;-77
2023/05/25 02:23:52;;;;;;;;;;;;;;;;;;5052617;28;20307;-77
2023/05/25 02:26:18;;;;;;;;;;;;;;;;;;5033632;28;19967;-78
2023/05/25 02:28:43;;;;;;;;;;;;;;;;;;5051481;28;19958;-77
2023/05/25 02:31:09;;;;;;;;;;;;;;;;;;5052155;28;19916;-77
2023/05/25 02:33:34;;;;;;;;;;;;;;;;;;5034422;28;20007;-78
2023/05/25 02:36:00;;;;;;;;;;;;;;;;;;5051376;28;19913;-77
2023/05/25 02:38:25;;;;;;;;;;;;;;;;;;5052332;28;19921;-77
2023/05/25 02:40:51;;;;;;;;;;;;;;;;;;5034220;28;19919;-76
2023/05/25 02:43:18;;;;;;;;;;;;;;;;;;5050227;28;19966;-77
2023/05/25 02:45:44;;;;;;;;;;;;;;;;;;5053297;28;19913;-77
2023/05/25 02:48:09;;;;;;;;;;;;;;;;;;5053190;28;19951;-78
2023/05/25 02:50:34;;;;;;;;;;;;;;;;;;5035136;28;19913;-77
2023/05/25 02:53:04;;;;;;;;;;;;;;;;;;5037564;28;20307;-78
2023/05/25 02:55:29;;;;;;;;;;;;;;;;;;5062054;28;19917;-77
2023/05/25 02:57:55;;;;;;;;;;;;;;;;;;5064871;28;19912;-74
2023/05/25 03:00:36;;;;;;;;;;;;;;;;;;5065665;28;19912;-76
2023/05/25 03:03:02;;;;;;;;;;;;;;;;;;5065639;28;19912;-79
2023/05/25 03:05:27;;;;;;;;;;;;;;;;;;5065905;28;19901;-77
2023/05/25 03:07:53;;;;;;;;;;;;;;;;;;5064606;28;19925;-77
2023/05/25 03:10:18;;;;;;;;;;;;;;;;;;5058502;28;19943;-78
2023/05/25 03:12:44;;;;;;;;;;;;;;;;;;5054726;28;19917;-78
2023/05/25 03:15:12;;;;;;;;;;;;;;;;;;5034834;28;19913;-78
2023/05/25 03:17:38;;;;;;;;;;;;;;;;;;5051712;28;20279;-78
2023/05/25 03:20:03;;;;;;;;;;;;;;;;;;5071622;28;20003;-77
2023/05/25 03:22:30;;;;;;;;;;;;;;;;;;5072345;28;19913;-78
2023/05/25 03:25:01;;;;;;;;;;;;;;;;;;5055761;28;19919;-78
2023/05/25 03:27:27;;;;;;;;;;;;;;;;;;5072001;28;19913;-78
2023/05/25 03:29:52;;;;;;;;;;;;;;;;;;5071776;28;19974;-77
2023/05/25 03:32:18;;;;;;;;;;;;;;;;;;5020535;28;19916;-77
2023/05/25 03:34:43;;;;;;;;;;;;;;;;;;5054353;28;19916;-78
2023/05/25 03:37:11;;;;;;;;;;;;;;;;;;5070913;28;19912;-79
2023/05/25 03:39:37;;;;;;;;;;;;;;;;;;5055439;28;20007;-79
2023/05/25 03:42:02;;;;;;;;;;;;;;;;;;5055534;28;20390;-78
2023/05/25 03:44:30;;;;;;;;;;;;;;;;;;5054842;28;19913;-78
2023/05/25 03:46:55;;;;;;;;;;;;;;;;;;5070960;28;19935;-77
2023/05/25 03:49:21;;;;;;;;;;;;;;;;;;5069716;28;19919;-76
2023/05/25 03:51:47;;;;;;;;;;;;;;;;;;5052772;28;20000;-77
2023/05/25 03:54:12;;;;;;;;;;;;;;;;;;5053748;28;19924;-78
2023/05/25 03:56:37;;;;;;;;;;;;;;;;;;5056453;28;19919;-78
2023/05/25 03:59:03;;;;;;;;;;;;;;;;;;5058272;28;19913;-81
2023/05/25 04:01:29;;;;;;;;;;;;;;;;;;5060115;28;19913;-79
2023/05/25 04:03:54;;;;;;;;;;;;;;;;;;5062350;28;19913;-79
2023/05/25 04:06:20;;;;;;;;;;;;;;;;;;5063108;28;19919;-79
2023/05/25 04:08:46;;;;;;;;;;;;;;;;;;5061103;28;19982;-79
2023/05/25 04:11:12;;;;;;;;;;;;;;;;;;5043853;28;20311;-79
2023/05/25 04:13:39;;;;;;;;;;;;;;;;;;5057302;28;20327;-78
2023/05/25 04:16:05;;;;;;;;;;;;;;;;;;5037664;28;19916;-77
2023/05/25 04:18:31;;;;;;;;;;;;;;;;;;5037478;28;19913;-76
2023/05/25 04:20:58;;;;;;;;;;;;;;;;;;5037103;28;20279;-77
2023/05/25 04:23:23;;;;;;;;;;;;;;;;;;5053289;28;19917;-78
2023/05/25 04:25:51;;;;;;;;;;;;;;;;;;5054177;28;19920;-78
2023/05/25 04:28:16;;;;;;;;;;;;;;;;;;5055091;28;19913;-78
2023/05/25 04:30:55;;;;;;;;;;;;;;;;;;5052572;28;19951;-78
2023/05/25 04:33:48;;;;;;;;;;;;;;;;;;5052541;28;19917;-78
2023/05/25 04:36:33;;;;;;;;;;;;;;;;;;5053320;28;19919;-79
2023/05/25 04:39:03;;;;;;;;;;;;;;;;;;5037280;28;20003;-79
2023/05/25 04:41:29;;;;;;;;;;;;;;;;;;5052692;28;19917;-82
2023/05/25 04:43:58;;;;;;;;;;;;;;;;;;5053575;28;19921;-79
2023/05/25 04:46:24;;;;;;;;;;;;;;;;;;5037222;28;19913;-80
2023/05/25 04:48:49;;;;;;;;;;;;;;;;;;5020931;28;19920;-78
2023/05/25 04:51:15;;;;;;;;;;;;;;;;;;5052963;28;19916;-78
2023/05/25 04:53:40;;;;;;;;;;;;;;;;;;5035838;28;20102;-79
2023/05/25 04:56:05;;;;;;;;;;;;;;;;;;5053392;28;19913;-77
2023/05/25 04:58:32;;;;;;;;;;;;;;;;;;5052323;28;19917;-76
2023/05/25 05:00:57;;;;;;;;;;;;;;;;;;5053536;28;19996;-77
2023/05/25 05:03:23;;;;;;;;;;;;;;;;;;5053094;28;19944;-79
2023/05/25 05:05:49;;;;;;;;;;;;;;;;;;5052869;28;19956;-79
2023/05/25 05:08:21;;;;;;;;;;;;;;;;;;5053630;28;19912;-78
2023/05/25 05:10:46;;;;;;;;;;;;;;;;;;5054066;28;20269;-79
2023/05/25 05:13:12;;;;;;;;;;;;;;;;;;5054120;28;19924;-79
2023/05/25 05:15:38;;;;;;;;;;;;;;;;;;5057566;28;19913;-77
2023/05/25 05:18:05;;;;;;;;;;;;;;;;;;5058949;28;20351;-80
2023/05/25 05:20:30;;;;;;;;;;;;;;;;;;5038533;28;20344;-79
2023/05/25 05:22:56;;;;;;;;;;;;;;;;;;5059305;28;19948;-77
2023/05/25 05:25:21;;;;;;;;;;;;;;;;;;5059859;28;19916;-77
2023/05/25 05:27:47;;;;;;;;;;;;;;;;;;5062262;28;19913;-78
2023/05/25 05:30:17;;;;;;;;;;;;;;;;;;5055076;28;19913;-76
2023/05/25 05:32:43;;;;;;;;;;;;;;;;;;5055388;28;20376;-78
2023/05/25 05:35:09;;;;;;;;;;;;;;;;;;5054334;28;19920;-77
2023/05/25 05:37:43;;;;;;;;;;;;;;;;;;5052145;28;20058;-78
2023/05/25 05:40:09;;;;;;;;;;;;;;;;;;5052480;28;20410;-76
2023/05/25 05:42:35;;;;;;;;;;;;;;;;;;5036333;28;19913;-79
2023/05/25 05:45:01;;;;;;;;;;;;;;;;;;5053453;28;19935;-79
2023/05/25 05:47:26;;;;;;;;;;;;;;;;;;5055127;28;20461;-77
2023/05/25 05:49:52;;;;;;;;;;;;;;;;;;5053610;28;20011;-77
2023/05/25 05:52:17;;;;;;;;;;;;;;;;;;5054413;28;19964;-77
2023/05/25 05:54:43;;;;;;;;;;;;;;;;;;5029129;28;19917;-79
2023/05/25 05:57:11;;;;;;;;;;;;;;;;;;5062335;28;19944;-79
2023/05/25 05:59:36;;;;;;;;;;;;;;;;;;5049856;28;19923;-78
2023/05/25 06:02:02;;;;;;;;;;;;;;;;;;5064630;28;19982;-76
2023/05/25 06:04:27;;;;;;;;;;;;;;;;;;5046885;28;20015;-78
2023/05/25 06:06:53;;;;;;;;;;;;;;;;;;5061656;28;19924;-78
2023/05/25 06:09:19;;;;;;;;;;;;;;;;;;5053933;28;19919;-78
2023/05/25 06:11:44;;;;;;;;;;;;;;;;;;5020916;28;19912;-78
2023/05/25 06:14:10;;;;;;;;;;;;;;;;;;5052599;28;19924;-77
2023/05/25 06:16:36;;;;;;;;;;;;;;;;;;5053227;28;20384;-78
2023/05/25 06:19:01;;;;;;;;;;;;;;;;;;5052906;28;19999;-77
2023/05/25 06:21:27;;;;;;;;;;;;;;;;;;5053403;28;20490;-78
2023/05/25 06:23:52;;;;;;;;;;;;;;;;;;5051660;28;19912;-77
2023/05/25 06:26:18;;;;;;;;;;;;;;;;;;5067532;28;20327;-77
2023/05/25 06:28:45;;;;;;;;;;;;;;;;;;5053354;28;19913;-77
2023/05/25 06:31:11;;;;;;;;;;;;;;;;;;5051726;28;19912;-81
2023/05/25 06:33:36;;;;;;;;;;;;;;;;;;5034951;28;20279;-81
2023/05/25 06:36:02;;;;;;;;;;;;;;;;;;5051147;28;20011;-79
2023/05/25 06:38:27;;;;;;;;;;;;;;;;;;5053006;28;19934;-80
2023/05/25 06:40:52;;;;;;;;;;;;;;;;;;5050350;28;19999;-84
2023/05/25 06:43:18;;;;;;;;;;;;;;;;;;5052568;28;19917;-81
2023/05/25 06:45:53;;;;;;;;;;;;;;;;;;5050952;28;20403;-83
2023/05/25 06:48:18;;;;;;;;;;;;;;;;;;5050979;28;19917;-81
2023/05/25 06:50:45;;;;;;;;;;;;;;;;;;5051223;28;20022;-83
2023/05/25 06:53:10;;;;;;;;;;;;;;;;;;5053910;28;20367;-79
2023/05/25 06:55:35;;;;;;;;;;;;;;;;;;5056143;28;19973;-83
2023/05/25 06:58:01;;;;;;;;;;;;;;;;;;5048454;28;19913;-83
2023/05/25 07:00:26;;;;;;;;;;;;;;;;;;5038238;28;19956;-83
2023/05/25 07:02:51;;;;;;;;;;;;;;;;;;5051925;28;20410;-81
2023/05/25 07:05:17;;;;;;;;;;;;;;;;;;5054649;28;20004;-83
2023/05/25 07:07:42;;;;;;;;;;;;;;;;;;5055463;28;20328;-85
2023/05/25 07:10:08;;;;;;;;;;;;;;;;;;5055899;28;19915;-81
2023/05/25 07:12:33;;;;;;;;;;;;;;;;;;5054890;28;19959;-84
2023/05/25 07:14:59;;;;;;;;;;;;;;;;;;5038436;28;19924;-85
2023/05/25 07:17:25;;;;;;;;;;;;;;;;;;5038593;28;19920;-83
2023/05/25 07:19:50;;;;;;;;;;;;;;;;;;5053309;28;20326;-81
2023/05/25 07:22:17;;;;;;;;;;;;;;;;;;5053348;28;19920;-78
2023/05/25 07:24:43;;;;;;;;;;;;;;;;;;5035490;28;19958;-79
2023/05/25 07:27:08;;;;;;;;;;;;;;;;;;5035001;28;19917;-78
2023/05/25 07:29:34;;;;;;;;;;;;;;;;;;5036022;28;20372;-78
2023/05/25 07:31:59;;;;;;;;;;;;;;;;;;5051585;28;19967;-79
2023/05/25 07:34:24;;;;;;;;;;;;;;;;;;5034999;28;20353;-78
2023/05/25 07:36:50;;;;;;;;;;;;;;;;;;5036680;28;19913;-79
2023/05/25 07:39:15;;;;;;;;;;;;;;;;;;5036102;28;19996;-79
2023/05/25 07:41:41;;;;;;;;;;;;;;;;;;5050752;28;19913;-79
2023/05/25 07:44:06;;;;;;;;;;;;;;;;;;5035369;28;19913;-78
2023/05/25 07:46:31;;;;;;;;;;;;;;;;;;5036389;28;19920;-79
2023/05/25 07:48:58;;;;;;;;;;;;;;;;;;5035767;28;20459;-79
2023/05/25 07:51:25;;;;;;;;;;;;;;;;;;5035191;28;19913;-79
2023/05/25 07:53:52;;;;;;;;;;;;;;;;;;5035289;28;19975;-77
2023/05/25 07:56:18;;;;;;;;;;;;;;;;;;5035679;28;19944;-79
2023/05/25 07:58:43;;;;;;;;;;;;;;;;;;5036103;28;19921;-79
2023/05/25 08:01:08;;;;;;;;;;;;;;;;;;5034737;28;19983;-78
2023/05/25 08:03:34;;;;;;;;;;;;;;;;;;5034787;28;19953;-77
2023/05/25 08:05:59;;;;;;;;;;;;;;;;;;5034764;28;19913;-78
2023/05/25 08:08:25;;;;;;;;;;;;;;;;;;5036590;28;19920;-79
2023/05/25 08:10:50;;;;;;;;;;;;;;;;;;5036278;28;19913;-79
2023/05/25 08:13:16;;;;;;;;;;;;;;;;;;5036808;28;19924;-79
2023/05/25 08:15:41;;;;;;;;;;;;;;;;;;5035788;28;19913;-78
2023/05/25 08:18:06;;;;;;;;;;;;;;;;;;5034974;28;19913;-79
2023/05/25 08:20:32;;;;;;;;;;;;;;;;;;5018288;28;20004;-79
2023/05/25 08:22:58;;;;;;;;;;;;;;;;;;5035440;28;20339;-79
2023/05/25 08:25:23;;;;;;;;;;;;;;;;;;5033988;28;19913;-79
2023/05/25 08:27:48;;;;;;;;;;;;;;;;;;5033950;28;19917;-81
2023/05/25 08:30:14;;;;;;;;;;;;;;;;;;5034605;28;20351;-79
2023/05/25 08:32:39;;;;;;;;;;;;;;;;;;5033472;28;19920;-78
2023/05/25 08:35:05;;;;;;;;;;;;;;;;;;5035218;28;19917;-79
2023/05/25 08:37:30;;;;;;;;;;;;;;;;;;5035088;28;19924;-80
2023/05/25 08:39:56;;;;;;;;;;;;;;;;;;5035026;28;19949;-80
2023/05/25 08:42:22;;;;;;;;;;;;;;;;;;5035863;28;19913;-79
2023/05/25 08:44:47;;;;;;;;;;;;;;;;;;5051555;28;19914;-78
2023/05/25 08:47:14;;;;;;;;;;;;;;;;;;5036863;28;19936;-79
2023/05/25 08:49:40;;;;;;;;;;;;;;;;;;5045537;28;20033;-78
2023/05/25 08:52:05;;;;;;;;;;;;;;;;;;5052714;28;19956;-80
2023/05/25 08:54:31;;;;;;;;;;;;;;;;;;5048179;28;19928;-78
2023/05/25 08:56:58;;;;;;;;;;;;;;;;;;5050736;28;19913;-78
2023/05/25 08:59:23;;;;;;;;;;;;;;;;;;5053361;28;19915;-79
2023/05/25 09:01:48;;;;;;;;;;;;;;;;;;5053297;28;19948;-78
2023/05/25 09:04:16;;;;;;;;;;;;;;;;;;5045162;28;19924;-78
2023/05/25 09:06:44;;;;;;;;;;;;;;;;;;5037861;28;19913;-79
2023/05/25 09:09:11;;;;;;;;;;;;;;;;;;5034974;28;20438;-79
2023/05/25 09:11:36;;;;;;;;;;;;;;;;;;5034572;28;20439;-78
2023/05/25 09:14:02;;;;;;;;;;;;;;;;;;5049383;28;20012;-79
2023/05/25 09:16:27;;;;;;;;;;;;;;;;;;5033851;28;19939;-79
2023/05/25 09:18:52;;;;;;;;;;;;;;;;;;5034469;28;19913;-80
2023/05/25 09:21:18;;;;;;;;;;;;;;;;;;5049968;28;20051;-80
2023/05/25 09:23:43;;;;;;;;;;;;;;;;;;5016957;28;20016;-79
2023/05/25 09:26:08;;;;;;;;;;;;;;;;;;5033358;28;19917;-79
2023/05/25 09:28:34;;;;;;;;;;;;;;;;;;5034337;28;20323;-80
2023/05/25 09:30:59;;;;;;;;;;;;;;;;;;5032259;28;19913;-79
2023/05/25 09:33:25;;;;;;;;;;;;;;;;;;5034217;28;20011;-79
2023/05/25 09:35:51;;;;;;;;;;;;;;;;;;5034390;28;19913;-79
2023/05/25 09:38:16;;;;;;;;;;;;;;;;;;5035073;28;19967;-79
2023/05/25 09:40:42;;;;;;;;;;;;;;;;;;5033525;28;20372;-81
2023/05/25 09:43:07;;;;;;;;;;;;;;;;;;5032265;28;20376;-79
2023/05/25 09:45:34;;;;;;;;;;;;;;;;;;5032043;28;19986;-79
2023/05/25 09:48:25;;;;;;;;;;;;;;;;;;5046039;28;19943;-79
2023/05/25 09:50:50;;;;;;;;;;;;;;;;;;5033346;28;20419;-80
2023/05/25 09:53:15;;;;;;;;;;;;;;;;;;5031815;28;19920;-80
2023/05/25 09:55:41;;;;;;;;;;;;;;;;;;5031990;28;20403;-80
2023/05/25 09:58:07;;;;;;;;;;;;;;;;;;5033575;28;19919;-78
2023/05/25 10:00:32;;;;;;;;;;;;;;;;;;5033139;28;19924;-80
2023/05/25 10:02:58;;;;;;;;;;;;;;;;;;5033511;28;19913;-77
2023/05/25 10:05:23;;;;;;;;;;;;;;;;;;5032116;28;19925;-80
2023/05/25 10:07:49;;;;;;;;;;;;;;;;;;5031863;28;19947;-79
2023/05/25 10:10:14;;;;;;;;;;;;;;;;;;5033015;28;19920;-79
2023/05/25 10:12:40;;;;;;;;;;;;;;;;;;5031414;28;19914;-79
2023/05/25 10:15:05;;;;;;;;;;;;;;;;;;5033582;28;20007;-79
2023/05/25 10:17:32;;;;;;;;;;;;;;;;;;5032620;28;19924;-79
2023/05/25 10:19:57;;;;;;;;;;;;;;;;;;5032156;28;20364;-79
2023/05/25 10:22:22;;;;;;;;;;;;;;;;;;5049079;28;19920;-80
2023/05/25 10:24:48;;;;;;;;;;;;;;;;;;5048602;28;19920;-78
2023/05/25 10:27:13;;;;;;;;;;;;;;;;;;5032298;28;19913;-78
2023/05/25 10:29:39;;;;;;;;;;;;;;;;;;5032021;28;19996;-79
2023/05/25 10:32:04;;;;;;;;;;;;;;;;;;5032713;28;19920;-78
2023/05/25 10:34:30;;;;;;;;;;;;;;;;;;5032898;28;20331;-80
2023/05/25 10:36:55;;;;;;;;;;;;;;;;;;5033001;28;19920;-80
2023/05/25 10:39:20;;;;;;;;;;;;;;;;;;5032402;28;19920;-80
2023/05/25 10:41:46;;;;;;;;;;;;;;;;;;5030612;28;19913;-80
2023/05/25 10:44:11;;;;;;;;;;;;;;;;;;5031715;28;19917;-79
2023/05/25 10:46:37;;;;;;;;;;;;;;;;;;5030958;28;19920;-79
2023/05/25 10:49:02;;;;;;;;;;;;;;;;;;5038077;28;19932;-78
2023/05/25 10:51:28;;;;;;;;;;;;;;;;;;5043579;28;19999;-78
2023/05/25 10:53:53;;;;;;;;;;;;;;;;;;5042830;28;19924;-79
2023/05/25 10:56:18;;;;;;;;;;;;;;;;;;5054814;28;20449;-80
2023/05/25 10:58:45;;;;;;;;;;;;;;;;;;5037024;28;19967;-78
2023/05/25 11:01:10;;;;;;;;;;;;;;;;;;5034834;28;19913;-79
2023/05/25 11:03:35;;;;;;;;;;;;;;;;;;5032652;28;20472;-79
2023/05/25 11:06:01;;;;;;;;;;;;;;;;;;5032380;28;19917;-79
2023/05/25 11:08:26;;;;;;;;;;;;;;;;;;5031064;28;19936;-79
2023/05/25 11:10:52;;;;;;;;;;;;;;;;;;5031161;28;19967;-81
2023/05/25 11:13:17;;;;;;;;;;;;;;;;;;5032651;28;20300;-78
2023/05/25 11:15:43;;;;;;;;;;;;;;;;;;5032444;28;19914;-81
2023/05/25 11:18:08;;;;;;;;;;;;;;;;;;5031285;28;19917;-80
2023/05/25 11:20:34;;;;;;;;;;;;;;;;;;5047306;28;20413;-80
2023/05/25 11:22:59;;;;;;;;;;;;;;;;;;5032144;28;20303;-79
2023/05/25 11:25:25;;;;;;;;;;;;;;;;;;5032566;28;19913;-79
2023/05/25 11:27:53;;;;;;;;;;;;;;;;;;5031347;28;19917;-78
2023/05/25 11:30:18;;;;;;;;;;;;;;;;;;5030866;28;20008;-79
2023/05/25 11:32:45;;;;;;;;;;;;;;;;;;5032792;28;19919;-81
2023/05/25 11:35:10;;;;;;;;;;;;;;;;;;5032573;28;19913;-79
2023/05/25 11:37:36;;;;;;;;;;;;;;;;;;5032841;28;19920;-80
2023/05/25 11:40:04;;;;;;;;;;;;;;;;;;5051621;28;20292;-78
2023/05/25 11:42:29;;;;;;;;;;;;;;;;;;5037746;28;19972;-78
2023/05/25 11:44:55;;;;;;;;;;;;;;;;;;5040875;28;19932;-80
2023/05/25 11:47:24;;;;;;;;;;;;;;;;;;5040684;28;19909;-77
2023/05/25 11:49:50;;;;;;;;;;;;;;;;;;5045432;28;19949;-75
2023/05/25 11:52:15;;;;;;;;;;;;;;;;;;5047628;28;19961;-78
2023/05/25 11:54:40;;;;;;;;;;;;;;;;;;5044278;28;20007;-79
2023/05/25 11:57:06;;;;;;;;;;;;;;;;;;5043278;28;19936;-78
2023/05/25 11:59:31;;;;;;;;;;;;;;;;;;5057587;28;20004;-77
2023/05/25 12:01:56;;;;;;;;;;;;;;;;;;5040350;28;19913;-79
2023/05/25 12:04:22;;;;;;;;;;;;;;;;;;5038915;28;20376;-80
2023/05/25 12:06:48;;;;;;;;;;;;;;;;;;5053082;28;19913;-79
2023/05/25 12:09:13;;;;;;;;;;;;;;;;;;5036615;28;19920;-79
2023/05/25 12:11:39;;;;;;;;;;;;;;;;;;5036296;28;20283;-79
2023/05/25 12:14:04;;;;;;;;;;;;;;;;;;5035629;28;19983;-79
2023/05/25 12:16:30;;;;;;;;;;;;;;;;;;5034353;28;19916;-80
2023/05/25 12:18:55;;;;;;;;;;;;;;;;;;5035489;28;19983;-79
2023/05/25 12:21:21;;;;;;;;;;;;;;;;;;5050653;28;20312;-79
2023/05/25 12:23:46;;;;;;;;;;;;;;;;;;5036017;28;19913;-80
2023/05/25 12:26:12;;;;;;;;;;;;;;;;;;5034075;28;20273;-80
2023/05/25 12:28:37;;;;;;;;;;;;;;;;;;5035169;28;20363;-79
2023/05/25 12:31:03;;;;;;;;;;;;;;;;;;5034824;28;19913;-80
2023/05/25 12:33:28;;;;;;;;;;;;;;;;;;5034454;28;19917;-79
2023/05/25 12:35:54;;;;;;;;;;;;;;;;;;5034999;28;19936;-80
2023/05/25 12:38:26;;;;;;;;;;;;;;;;;;5046804;22;20012;-76
2023/05/25 12:40:51;;;;;;;;;;;;;;;;;;5002326;28;19924;-77
2023/05/25 12:43:17;;;;;;;;;;;;;;;;;;5034483;28;20288;-77
2023/05/25 12:45:51;;;;;;;;;;;;;;;;;;5003135;28;20024;-75
2023/05/25 12:48:19;;;;;;;;;;;;;;;;;;4998566;28;20056;-77
2023/05/25 12:50:45;;;;;;;;;;;;;;;;;;5006123;28;19980;-77
2023/05/25 12:53:10;;;;;;;;;;;;;;;;;;5010619;28;20288;-77
2023/05/25 12:55:37;;;;;;;;;;;;;;;;;;5013270;28;20550;-76
2023/05/25 12:58:03;;;;;;;;;;;;;;;;;;5010544;28;19913;-77
2023/05/25 13:00:28;;;;;;;;;;;;;;;;;;5010259;28;19921;-77
2023/05/25 13:02:54;;;;;;;;;;;;;;;;;;5010946;28;20288;-76
2023/05/25 13:05:20;;;;;;;;;;;;;;;;;;4997172;28;19920;-77
2023/05/25 13:07:45;;;;;;;;;;;;;;;;;;5010894;28;20335;-78
2023/05/25 13:10:11;;;;;;;;;;;;;;;;;;5027968;28;19936;-78
2023/05/25 13:12:36;;;;;;;;;;;;;;;;;;5019387;28;20336;-77
2023/05/25 13:15:02;;;;;;;;;;;;;;;;;;4991384;28;20004;-79
2023/05/25 13:17:28;;;;;;;;;;;;;;;;;;5021537;28;20325;-78
2023/05/25 13:19:54;;;;;;;;;;;;;;;;;;5007661;28;19945;-78
2023/05/25 13:22:19;;;;;;;;;;;;;;;;;;4983217;28;19987;-78
2023/05/25 13:24:45;;;;;;;;;;;;;;;;;;5011260;28;19976;-78
2023/05/25 13:27:13;;;;;;;;;;;;;;;;;;4994063;28;19914;-77
2023/05/25 13:29:38;;;;;;;;;;;;;;;;;;4992181;28;19952;-76
2023/05/25 13:32:04;;;;;;;;;;;;;;;;;;4992370;28;19913;-75
2023/05/25 13:34:30;;;;;;;;;;;;;;;;;;4992544;28;19921;-78
2023/05/25 13:36:55;;;;;;;;;;;;;;;;;;4992314;28;19913;-78
2023/05/25 13:39:21;;;;;;;;;;;;;;;;;;4975081;28;19924;-76
2023/05/25 13:41:47;;;;;;;;;;;;;;;;;;4983875;28;20325;-75
2023/05/25 13:44:13;;;;;;;;;;;;;;;;;;5009390;28;19913;-77
2023/05/25 13:46:38;;;;;;;;;;;;;;;;;;5010186;28;20092;-77
2023/05/25 13:49:04;;;;;;;;;;;;;;;;;;5019565;28;19955;-75
2023/05/25 13:51:30;;;;;;;;;;;;;;;;;;5007491;28;20370;-76
2023/05/25 13:53:55;;;;;;;;;;;;;;;;;;4991838;28;19918;-76
2023/05/25 13:56:22;;;;;;;;;;;;;;;;;;5007935;28;19920;-75
2023/05/25 13:58:47;;;;;;;;;;;;;;;;;;4993654;28;19920;-76
2023/05/25 14:01:13;;;;;;;;;;;;;;;;;;4996951;28;20004;-77
2023/05/25 14:03:38;;;;;;;;;;;;;;;;;;5005492;28;19984;-77
2023/05/25 14:06:04;;;;;;;;;;;;;;;;;;5011391;28;20015;-77
2023/05/25 14:08:30;;;;;;;;;;;;;;;;;;4994852;28;19913;-76
2023/05/25 14:10:55;;;;;;;;;;;;;;;;;;5007208;28;20293;-77
2023/05/25 14:13:21;;;;;;;;;;;;;;;;;;4998651;28;19918;-77
2023/05/25 14:15:50;;;;;;;;;;;;;;;;;;5005625;28;19917;-77
2023/05/25 14:18:15;;;;;;;;;;;;;;;;;;4995827;28;20269;-77
2023/05/25 14:20:41;;;;;;;;;;;;;;;;;;5022308;28;19979;-76
2023/05/25 14:23:07;;;;;;;;;;;;;;;;;;4983878;28;19917;-75
2023/05/25 14:25:32;;;;;;;;;;;;;;;;;;5000222;28;19924;-76
2023/05/25 14:27:58;;;;;;;;;;;;;;;;;;5006725;28;19913;-77
2023/05/25 14:30:24;;;;;;;;;;;;;;;;;;5010388;28;19921;-76
2023/05/25 14:32:49;;;;;;;;;;;;;;;;;;5019672;28;20280;-76
2023/05/25 14:35:15;;;;;;;;;;;;;;;;;;5017577;28;19921;-76
2023/05/25 14:37:40;;;;;;;;;;;;;;;;;;5001928;28;19936;-76
2023/05/25 14:40:06;;;;;;;;;;;;;;;;;;5011023;28;20213;-76
2023/05/25 14:42:32;;;;;;;;;;;;;;;;;;4991140;28;19914;-77
2023/05/25 14:44:57;;;;;;;;;;;;;;;;;;4995351;28;20352;-76
2023/05/25 14:47:23;;;;;;;;;;;;;;;;;;5016363;28;19968;-76
2023/05/25 14:49:48;;;;;;;;;;;;;;;;;;5017761;28;19988;-77
2023/05/25 14:52:14;;;;;;;;;;;;;;;;;;5023217;28;19925;-77
2023/05/25 14:54:43;;;;;;;;;;;;;;;;;;4995862;28;20012;-78
2023/05/25 14:57:09;;;;;;;;;;;;;;;;;;5002127;28;19913;-77
2023/05/25 14:59:34;;;;;;;;;;;;;;;;;;4986497;28;20017;-78
2023/05/25 15:02:00;;;;;;;;;;;;;;;;;;4995084;28;19925;-77
2023/05/25 15:04:28;;;;;;;;;;;;;;;;;;4991066;28;19914;-77
2023/05/25 15:06:54;;;;;;;;;;;;;;;;;;5010628;28;19933;-77
2023/05/25 15:09:19;;;;;;;;;;;;;;;;;;4992531;28;20135;-76
2023/05/25 15:11:45;;;;;;;;;;;;;;;;;;4991162;28;19920;-79
2023/05/25 15:14:11;;;;;;;;;;;;;;;;;;4992861;28;19918;-77
2023/05/25 15:16:36;;;;;;;;;;;;;;;;;;5013163;28;19999;-77
2023/05/25 15:19:02;;;;;;;;;;;;;;;;;;5012937;28;19913;-76
2023/05/25 15:21:27;;;;;;;;;;;;;;;;;;4996618;28;20274;-77
2023/05/25 15:23:53;;;;;;;;;;;;;;;;;;5024667;28;19921;-77
2023/05/25 15:26:18;;;;;;;;;;;;;;;;;;5014670;28;20384;-77
2023/05/25 15:28:44;;;;;;;;;;;;;;;;;;5015074;28;19914;-78
2023/05/25 15:31:09;;;;;;;;;;;;;;;;;;5015045;28;19944;-78
2023/05/25 15:33:38;;;;;;;;;;;;;;;;;;5014420;28;19918;-77
2023/05/25 15:36:03;;;;;;;;;;;;;;;;;;5015530;28;19913;-76
2023/05/25 15:38:29;;;;;;;;;;;;;;;;;;5014081;28;20391;-77
2023/05/25 15:40:55;;;;;;;;;;;;;;;;;;5013121;28;19913;-77
2023/05/25 15:43:20;;;;;;;;;;;;;;;;;;5015015;28;19918;-78
2023/05/25 15:45:45;;;;;;;;;;;;;;;;;;5015172;28;19914;-79
2023/05/25 15:48:11;;;;;;;;;;;;;;;;;;5013912;28;19914;-77
2023/05/25 15:50:38;;;;;;;;;;;;;;;;;;5013762;28;19909;-76
2023/05/25 15:53:06;;;;;;;;;;;;;;;;;;5013968;28;19921;-78
2023/05/25 15:55:32;;;;;;;;;;;;;;;;;;5015252;28;19955;-76
2023/05/25 15:58:01;;;;;;;;;;;;;;;;;;5012656;28;19914;-77
2023/05/25 16:00:26;;;;;;;;;;;;;;;;;;5029972;28;19914;-77
2023/05/25 16:02:52;;;;;;;;;;;;;;;;;;5030173;28;20008;-77
2023/05/25 16:05:17;;;;;;;;;;;;;;;;;;5015015;28;20016;-78
2023/05/25 16:07:43;;;;;;;;;;;;;;;;;;5030130;28;19914;-76
2023/05/25 16:10:09;;;;;;;;;;;;;;;;;;5014343;28;19921;-77
2023/05/25 16:12:34;;;;;;;;;;;;;;;;;;5028691;28;19941;-78
2023/05/25 16:15:00;;;;;;;;;;;;;;;;;;5013855;28;19917;-76
2023/05/25 16:17:27;;;;;;;;;;;;;;;;;;5013609;28;19923;-78
2023/05/25 16:19:52;;;;;;;;;;;;;;;;;;5013553;28;19936;-76
2023/05/25 16:22:18;;;;;;;;;;;;;;;;;;4997074;28;20350;-77
2023/05/25 16:24:43;;;;;;;;;;;;;;;;;;5012574;28;19921;-77
2023/05/25 16:27:09;;;;;;;;;;;;;;;;;;5012942;28;20352;-76
2023/05/25 16:29:35;;;;;;;;;;;;;;;;;;5011373;28;20438;-77
2023/05/25 16:32:00;;;;;;;;;;;;;;;;;;5013391;28;19913;-78
2023/05/25 16:34:26;;;;;;;;;;;;;;;;;;5014403;28;20431;-76
2023/05/25 16:36:51;;;;;;;;;;;;;;;;;;5014553;28;19999;-77